Time;durP1;ratioP1;P1;durP2;ratioP2;P2;SDS_P1;SDS_P2;PMS_P1;PMS_P2;Temp;Humidity;BMP_temperature;BMP_pressure;BME280_temperature;BME280_humidity;BME280_pressure;Samples;Min_cycle;Max_cycle;Signal;HPM_P1;HPM_P2
2021/12/20 00:01:00;;;;;;;23.60;7.00;;;-3275.40;99.20;;;;;;5003094;28;20029;-75
2021/12/20 00:03:25;;;;;;;28.50;7.18;;;-3275.40;99.20;;;;;;4996146;28;20397;-74
2021/12/20 00:05:51;;;;;;;24.20;7.47;;;-3275.30;99.20;;;;;;4995684;28;20026;-77
2021/12/20 00:08:17;;;;;;;36.40;7.35;;;-3275.40;99.20;;;;;;4996577;28;20110;-77
2021/12/20 00:10:43;;;;;;;26.08;7.10;;;-3275.30;99.20;;;;;;4999914;28;20384;-78
2021/12/20 00:13:08;;;;;;;34.92;8.85;;;-3275.30;99.20;;;;;;4989135;28;20129;-77
2021/12/20 00:15:34;;;;;;;39.72;7.07;;;-3275.30;99.20;;;;;;4991890;28;20103;-75
2021/12/20 00:18:00;;;;;;;45.55;8.02;;;-3275.30;99.20;;;;;;4990747;28;20048;-75
2021/12/20 00:20:25;;;;;;;33.95;7.60;;;-3275.30;99.30;;;;;;4996717;28;20133;-78
2021/12/20 00:22:51;;;;;;;34.67;7.40;;;-3275.20;99.20;;;;;;5000644;28;20091;-74
2021/12/20 00:25:17;;;;;;;31.17;7.93;;;-3275.20;99.20;;;;;;4995521;28;20041;-74
2021/12/20 00:27:42;;;;;;;42.08;8.35;;;-3275.20;99.20;;;;;;5002149;28;20404;-75
2021/12/20 00:30:10;;;;;;;44.22;7.60;;;-3275.20;99.20;;;;;;4989312;28;20074;-77
2021/12/20 00:32:35;;;;;;;34.63;7.45;;;-3275.20;99.20;;;;;;4995941;28;20128;-74
2021/12/20 00:35:02;;;;;;;43.47;7.85;;;-3275.20;99.20;;;;;;5001196;28;20097;-76
2021/12/20 00:40:21;;;;;;;40.88;6.93;;;-3275.10;99.20;;;;;;4993344;28;20886;-74
2021/12/20 00:43:00;;;;;;;37.30;7.50;;;-3275.00;99.10;;;;;;4995670;28;20457;-77
2021/12/20 00:45:31;;;;;;;33.70;6.88;;;-3275.00;99.10;;;;;;4995282;28;20037;-77
2021/12/20 00:47:57;;;;;;;30.67;7.32;;;-3275.10;99.20;;;;;;4987745;28;20744;-75
2021/12/20 00:50:24;;;;;;;30.25;6.95;;;-3275.10;99.20;;;;;;4994232;28;20065;-74
2021/12/20 00:52:51;;;;;;;35.33;7.63;;;-3275.20;99.30;;;;;;5000236;28;20034;-77
2021/12/20 00:55:18;;;;;;;32.72;6.82;;;-3275.10;99.20;;;;;;4999092;28;20022;-75
2021/12/20 00:57:45;;;;;;;32.03;7.35;;;-3275.00;99.10;;;;;;4991330;28;20025;-75
2021/12/20 01:00:16;;;;;;;27.00;6.72;;;-3275.00;99.10;;;;;;4996119;28;20026;-75
2021/12/20 01:02:42;;;;;;;29.38;6.75;;;-3275.00;99.10;;;;;;4995236;28;20041;-74
2021/12/20 01:05:08;;;;;;;21.60;6.53;;;-3275.00;99.10;;;;;;4994977;28;20041;-75
2021/12/20 01:07:34;;;;;;;29.67;6.15;;;-3275.00;99.10;;;;;;5000445;28;20065;-75
2021/12/20 01:10:03;;;;;;;22.15;7.00;;;-3275.00;99.20;;;;;;4991616;28;20147;-75
2021/12/20 01:12:35;;;;;;;31.25;7.22;;;-3274.90;99.10;;;;;;4997645;28;20022;-75
2021/12/20 01:15:01;;;;;;;24.63;6.65;;;-3274.80;99.10;;;;;;5000340;28;20425;-75
2021/12/20 01:17:27;;;;;;;32.67;7.93;;;-3274.90;99.10;;;;;;4996845;28;20062;-75
2021/12/20 01:19:54;;;;;;;37.67;7.05;;;-3274.90;99.10;;;;;;4986466;28;20042;-76
2021/12/20 01:22:19;;;;;;;47.15;7.70;;;-3274.90;99.20;;;;;;4989359;28;20090;-77
2021/12/20 01:24:45;;;;;;;34.72;7.95;;;-3275.00;99.20;;;;;;4993556;28;20474;-75
2021/12/20 01:27:10;;;;;;;41.08;7.68;;;-3274.90;99.20;;;;;;4999839;28;20070;-77
2021/12/20 01:29:36;;;;;;;40.65;8.50;;;-3274.80;99.10;;;;;;4999612;28;20030;-77
2021/12/20 01:32:02;;;;;;;37.38;7.63;;;-3274.80;99.10;;;;;;4993892;28;20052;-75
2021/12/20 01:34:27;;;;;;;36.90;7.35;;;-3274.80;99.10;;;;;;4984320;28;20165;-76
2021/12/20 01:36:55;;;;;;;30.40;6.80;;;-3274.80;99.00;;;;;;4986644;28;20041;-78
2021/12/20 01:39:22;;;;;;;41.47;7.40;;;-3274.70;99.00;;;;;;4992269;28;20098;-77
2021/12/20 01:41:47;;;;;;;36.80;7.30;;;-3274.70;99.00;;;;;;5000567;28;20362;-76
2021/12/20 01:44:13;;;;;;;31.15;7.80;;;-3274.70;99.00;;;;;;4996299;28;20038;-77
2021/12/20 01:46:39;;;;;;;36.63;7.03;;;-3274.70;99.00;;;;;;4995439;28;20041;-75
2021/12/20 01:49:09;;;;;;;33.22;6.95;;;-3274.60;99.00;;;;;;4999079;28;20166;-75
2021/12/20 01:54:03;;;;;;;36.92;6.60;;;-3274.50;99.00;;;;;;4988455;28;20459;-75
2021/12/20 01:56:31;;;;;;;49.38;7.10;;;-3274.50;99.00;;;;;;4995799;28;20033;-75
2021/12/20 01:59:02;;;;;;;42.03;7.68;;;-3274.50;99.00;;;;;;4992572;28;20048;-75
2021/12/20 02:01:28;;;;;;;32.20;7.13;;;-3274.50;99.00;;;;;;4999466;28;20084;-75
2021/12/20 02:03:58;;;;;;;42.08;6.97;;;-3274.50;99.00;;;;;;4995756;28;20073;-75
2021/12/20 02:06:37;;;;;;;32.40;7.38;;;-3274.50;99.00;;;;;;4996220;28;20030;-75
2021/12/20 02:09:12;;;;;;;38.28;6.80;;;-3274.50;99.00;;;;;;4993708;28;20030;-76
2021/12/20 02:11:39;;;;;;;28.33;6.47;;;-3274.50;99.00;;;;;;4994657;28;20085;-75
2021/12/20 02:14:07;;;;;;;38.38;7.60;;;-3274.40;99.00;;;;;;4997811;28;20062;-75
2021/12/20 02:16:33;;;;;;;39.55;7.82;;;-3274.40;99.00;;;;;;4990989;28;20114;-75
2021/12/20 02:19:08;;;;;;;42.83;7.00;;;-3274.40;98.90;;;;;;4990527;28;20222;-75
2021/12/20 02:21:34;;;;;;;44.42;8.13;;;-3274.40;98.90;;;;;;4997522;28;20030;-75
2021/12/20 02:24:00;;;;;;;37.78;6.32;;;-3274.30;98.90;;;;;;4990943;28;20611;-75
2021/12/20 02:26:25;;;;;;;29.25;7.70;;;-3274.30;98.80;;;;;;4997819;28;20030;-75
2021/12/20 02:28:57;;;;;;;40.50;7.47;;;-3274.30;98.80;;;;;;4985837;28;20022;-76
2021/12/20 02:39:26;;;;;;;28.38;6.35;;;-3274.10;98.80;;;;;;4996897;28;20460;-75
2021/12/20 02:41:51;;;;;;;26.33;7.30;;;-3274.10;98.80;;;;;;4994994;28;20034;-76
2021/12/20 02:44:19;;;;;;;35.03;8.05;;;-3274.20;98.90;;;;;;4990467;28;20505;-76
2021/12/20 02:47:05;;;;;;;38.67;6.82;;;-3274.10;98.80;;;;;;4989888;28;20034;-75
2021/12/20 02:49:31;;;;;;;33.72;7.13;;;-3274.00;98.80;;;;;;4993766;28;20519;-75
2021/12/20 02:52:07;;;;;;;44.63;7.43;;;-3274.00;98.70;;;;;;4994020;28;20108;-76
2021/12/20 02:54:33;;;;;;;29.23;7.20;;;-3274.00;98.70;;;;;;4998925;28;20022;-75
2021/12/20 02:56:58;;;;;;;33.45;6.82;;;-3274.00;98.70;;;;;;5012243;28;20078;-77
2021/12/20 02:59:24;;;;;;;30.25;6.53;;;-3274.00;98.70;;;;;;4988032;28;20057;-76
2021/12/20 03:01:54;;;;;;;40.50;7.78;;;-3273.90;98.70;;;;;;4987720;28;20391;-75
2021/12/20 03:04:20;;;;;;;29.93;6.23;;;-3274.00;98.70;;;;;;4989426;28;20034;-75
2021/12/20 03:06:49;;;;;;;35.53;7.95;;;-3274.00;98.70;;;;;;4992737;28;20625;-77
2021/12/20 03:09:19;;;;;;;35.45;8.70;;;-3273.90;98.60;;;;;;5000409;28;20515;-75
2021/12/20 03:11:55;;;;;;;28.05;6.97;;;-3273.90;98.60;;;;;;4987109;28;20155;-76
2021/12/20 03:14:31;;;;;;;35.55;8.07;;;-3273.90;98.60;;;;;;4996222;28;20029;-76
2021/12/20 03:16:57;;;;;;;37.03;7.00;;;-3273.80;98.60;;;;;;5004184;28;20029;-75
2021/12/20 03:19:23;;;;;;;43.92;7.55;;;-3273.90;98.60;;;;;;4996382;28;20057;-78
2021/12/20 03:21:49;;;;;;;35.05;8.00;;;-3274.00;98.60;;;;;;4997377;28;20030;-76
2021/12/20 03:24:15;;;;;;;28.25;6.85;;;-3274.00;98.60;;;;;;4996942;28;20459;-76
2021/12/20 03:26:41;;;;;;;39.33;7.55;;;-3274.10;98.70;;;;;;5003288;28;20030;-78
2021/12/20 03:29:07;;;;;;;35.15;8.15;;;-3274.10;98.60;;;;;;4998214;28;20250;-76
2021/12/20 03:31:32;;;;;;;26.05;6.85;;;-3274.10;98.60;;;;;;4992757;28;20349;-75
2021/12/20 03:33:58;;;;;;;37.28;8.52;;;-3274.00;98.50;;;;;;5015414;28;20054;-77
2021/12/20 03:36:24;;;;;;;28.95;7.38;;;-3274.00;98.50;;;;;;5002057;28;20719;-79
2021/12/20 03:38:52;;;;;;;32.25;7.95;;;-3274.00;98.50;;;;;;4997631;28;20668;-75
2021/12/20 03:41:18;;;;;;;31.25;8.00;;;-3273.90;98.40;;;;;;4999860;28;20030;-79
2021/12/20 03:43:44;;;;;;;33.97;8.52;;;-3273.80;98.40;;;;;;4988540;28;20034;-77
2021/12/20 03:46:10;;;;;;;46.20;8.55;;;-3273.80;98.30;;;;;;4997765;28;20469;-75
2021/12/20 03:48:35;;;;;;;26.17;8.13;;;-3273.80;98.40;;;;;;4996390;28;20031;-76
2021/12/20 03:51:04;;;;;;;40.15;8.00;;;-3273.70;98.40;;;;;;4997830;28;20034;-77
2021/12/20 03:53:31;;;;;;;36.13;7.90;;;-3273.70;98.30;;;;;;4997218;28;20115;-78
2021/12/20 03:55:57;;;;;;;33.92;8.23;;;-3273.80;98.40;;;;;;4998984;28;20115;-75
2021/12/20 03:58:23;;;;;;;46.55;8.52;;;-3273.80;98.40;;;;;;4997050;28;20118;-75
2021/12/20 04:00:49;;;;;;;28.38;7.63;;;-3273.70;98.30;;;;;;4994156;28;20049;-75
2021/12/20 04:03:15;;;;;;;39.42;8.30;;;-3273.70;98.30;;;;;;4998931;28;20068;-75
2021/12/20 04:05:42;;;;;;;38.53;8.13;;;-3273.60;98.20;;;;;;4996411;28;20050;-75
2021/12/20 04:08:08;;;;;;;38.80;9.25;;;-3273.70;98.30;;;;;;4996210;28;20064;-75
2021/12/20 04:10:34;;;;;;;32.33;8.05;;;-3273.70;98.20;;;;;;4998664;28;20032;-75
2021/12/20 04:12:59;;;;;;;49.45;9.02;;;-3273.60;98.20;;;;;;4997399;28;20412;-75
2021/12/20 04:15:25;;;;;;;36.88;8.30;;;-3273.60;98.30;;;;;;4996388;28;20111;-76
2021/12/20 04:17:51;;;;;;;40.55;8.05;;;-3273.60;98.30;;;;;;5002303;28;20036;-77
2021/12/20 04:20:16;;;;;;;31.00;8.18;;;-3273.60;98.20;;;;;;4994218;28;20042;-76
2021/12/20 04:22:42;;;;;;;46.95;9.02;;;-3273.60;98.20;;;;;;4998588;28;20430;-76
2021/12/20 04:25:09;;;;;;;32.28;8.85;;;-3273.60;98.10;;;;;;5002833;28;20031;-75
2021/12/20 04:27:35;;;;;;;42.25;9.18;;;-3273.60;98.20;;;;;;5015705;28;20338;-78
2021/12/20 04:30:08;;;;;;;39.85;8.55;;;-3273.50;98.20;;;;;;5012444;28;20132;-77
2021/12/20 04:32:34;;;;;;;30.65;7.85;;;-3273.60;98.20;;;;;;5028406;28;20531;-78
2021/12/20 04:34:59;;;;;;;44.45;8.57;;;-3273.60;98.20;;;;;;5017488;28;20074;-77
2021/12/20 04:37:25;;;;;;;34.85;8.98;;;-3273.70;98.20;;;;;;5018220;28;20097;-75
2021/12/20 04:39:50;;;;;;;37.17;8.77;;;-3273.60;98.20;;;;;;4996896;28;20099;-77
2021/12/20 04:42:16;;;;;;;34.78;9.23;;;-3273.50;98.10;;;;;;5002713;28;20033;-75
2021/12/20 04:44:42;;;;;;;40.22;8.27;;;-3273.60;98.10;;;;;;4988319;28;20030;-75
2021/12/20 04:47:08;;;;;;;32.60;8.35;;;-3273.50;98.10;;;;;;4990740;28;20045;-75
2021/12/20 04:49:33;;;;;;;45.70;8.35;;;-3273.50;98.10;;;;;;4993262;28;20395;-78
2021/12/20 04:51:59;;;;;;;34.70;8.60;;;-3273.40;98.10;;;;;;5000882;28;20049;-78
2021/12/20 04:54:25;;;;;;;40.33;8.95;;;-3273.40;98.10;;;;;;4999087;28;20030;-75
2021/12/20 04:56:51;;;;;;;39.03;8.30;;;-3273.40;98.10;;;;;;4995612;28;20025;-75
2021/12/20 04:59:16;;;;;;;29.88;8.43;;;-3273.40;98.10;;;;;;4990098;28;20591;-75
2021/12/20 05:01:43;;;;;;;39.42;8.13;;;-3273.30;98.10;;;;;;4992838;28;20476;-76
2021/12/20 05:04:08;;;;;;;39.78;9.32;;;-3273.40;98.10;;;;;;4998400;28;20030;-76
2021/12/20 05:06:34;;;;;;;30.25;8.20;;;-3273.30;98.10;;;;;;4994071;28;20461;-77
2021/12/20 05:09:02;;;;;;;33.47;9.18;;;-3273.30;98.00;;;;;;4995686;28;20045;-75
2021/12/20 05:11:30;;;;;;;38.45;8.02;;;-3273.30;98.10;;;;;;4997254;28;20030;-78
2021/12/20 05:13:55;;;;;;;28.33;7.70;;;-3273.30;98.10;;;;;;4998864;28;20086;-75
2021/12/20 05:16:21;;;;;;;25.77;8.00;;;-3273.20;98.10;;;;;;5001141;28;20108;-76
2021/12/20 05:18:47;;;;;;;38.20;8.32;;;-3273.20;98.10;;;;;;4990225;28;20026;-72
2021/12/20 05:21:12;;;;;;;40.95;8.80;;;-3273.20;98.00;;;;;;4996586;28;20019;-66
2021/12/20 05:23:38;;;;;;;29.80;8.18;;;-3273.20;98.00;;;;;;4989736;28;20514;-66
2021/12/20 05:26:03;;;;;;;33.50;8.27;;;-3273.20;98.10;;;;;;5002359;28;20096;-66
2021/12/20 05:28:29;;;;;;;41.15;8.27;;;-3273.20;98.10;;;;;;4994700;28;20531;-66
2021/12/20 05:30:55;;;;;;;37.00;7.95;;;-3273.20;98.00;;;;;;4993076;28;20084;-67
2021/12/20 05:33:22;;;;;;;32.97;8.18;;;-3273.20;98.00;;;;;;4996978;28;20488;-67
2021/12/20 05:35:48;;;;;;;31.90;8.10;;;-3273.10;97.90;;;;;;4996226;28;20378;-67
2021/12/20 05:38:14;;;;;;;41.75;8.60;;;-3273.10;98.00;;;;;;4991788;28;20770;-67
2021/12/20 05:40:39;;;;;;;38.83;8.70;;;-3273.10;97.90;;;;;;4991097;28;20138;-67
2021/12/20 05:43:05;;;;;;;34.40;7.82;;;-3273.10;97.90;;;;;;4994068;28;20389;-67
2021/12/20 05:45:31;;;;;;;36.10;8.65;;;-3273.00;97.90;;;;;;4997668;28;20108;-67
2021/12/20 05:47:56;;;;;;;30.40;8.55;;;-3273.00;97.90;;;;;;4998364;28;20033;-67
2021/12/20 05:50:23;;;;;;;45.22;8.48;;;-3273.00;97.80;;;;;;4997652;28;20822;-67
2021/12/20 05:52:49;;;;;;;31.20;8.35;;;-3272.90;97.80;;;;;;4986510;28;20706;-67
2021/12/20 05:55:15;;;;;;;39.70;8.07;;;-3273.00;98.00;;;;;;4996127;28;20025;-67
2021/12/20 05:57:40;;;;;;;31.50;8.20;;;-3272.90;97.90;;;;;;4998108;28;20026;-67
2021/12/20 06:00:12;;;;;;;35.88;8.00;;;-3272.90;97.90;;;;;;4989972;28;20096;-67
2021/12/20 06:02:38;;;;;;;32.72;8.40;;;-3272.90;97.90;;;;;;5008039;28;20034;-67
2021/12/20 06:05:04;;;;;;;23.42;7.85;;;-3272.90;97.90;;;;;;4989729;28;20034;-67
2021/12/20 06:07:29;;;;;;;32.17;7.72;;;-3272.90;97.90;;;;;;4993189;28;20034;-67
2021/12/20 06:09:55;;;;;;;28.35;7.50;;;-3272.90;97.80;;;;;;4989333;28;20042;-67
2021/12/20 06:12:20;;;;;;;35.10;8.30;;;-3272.90;97.80;;;;;;4995562;28;20078;-67
2021/12/20 06:14:46;;;;;;;28.20;7.90;;;-3272.80;97.80;;;;;;4989904;28;20022;-67
2021/12/20 06:17:11;;;;;;;26.65;8.10;;;-3272.80;97.80;;;;;;4994548;28;20644;-67
2021/12/20 06:19:37;;;;;;;36.90;8.85;;;-3272.80;97.70;;;;;;4991484;28;20128;-67
2021/12/20 06:22:04;;;;;;;39.60;8.07;;;-3272.80;97.80;;;;;;4992113;28;20144;-67
2021/12/20 06:24:29;;;;;;;33.75;7.80;;;-3272.80;97.80;;;;;;4992848;28;20073;-67
2021/12/20 06:26:55;;;;;;;39.35;8.55;;;-3272.80;97.80;;;;;;4990785;28;20385;-67
2021/12/20 06:29:20;;;;;;;39.55;8.07;;;-3272.80;97.70;;;;;;4995236;28;20607;-68
2021/12/20 06:31:46;;;;;;;29.38;8.55;;;-3272.80;97.70;;;;;;4993119;28;20162;-67
2021/12/20 06:34:12;;;;;;;28.40;8.70;;;-3272.80;97.70;;;;;;4990893;28;20113;-67
2021/12/20 06:36:37;;;;;;;34.70;7.47;;;-3272.80;97.70;;;;;;4991474;28;20038;-67
2021/12/20 06:39:04;;;;;;;33.50;8.75;;;-3272.80;97.70;;;;;;4987911;28;20030;-67
2021/12/20 06:41:30;;;;;;;27.23;8.10;;;-3272.80;97.60;;;;;;4992311;28;20075;-67
2021/12/20 06:43:56;;;;;;;36.17;8.82;;;-3272.80;97.60;;;;;;4989054;28;20038;-67
2021/12/20 06:46:24;;;;;;;27.02;7.00;;;-3272.80;97.60;;;;;;4996326;28;20094;-71
2021/12/20 06:48:49;;;;;;;25.98;7.80;;;-3272.80;97.60;;;;;;4995331;28;20567;-67
2021/12/20 06:51:15;;;;;;;31.55;9.13;;;-3272.80;97.60;;;;;;5010376;28;20022;-67
2021/12/20 06:53:40;;;;;;;39.90;9.73;;;-3272.80;97.60;;;;;;5001328;28;20030;-67
2021/12/20 06:56:06;;;;;;;29.73;8.68;;;-3272.80;97.60;;;;;;4994880;28;20028;-66
2021/12/20 06:58:31;;;;;;;30.60;9.25;;;-3272.80;97.50;;;;;;4997625;28;20048;-67
2021/12/20 07:00:57;;;;;;;30.85;8.80;;;-3272.90;97.50;;;;;;4989300;28;20029;-67
2021/12/20 07:03:22;;;;;;;37.33;8.85;;;-3272.80;97.50;;;;;;5001417;28;20034;-67
2021/12/20 07:05:48;;;;;;;31.02;8.77;;;-3272.80;97.50;;;;;;4982399;28;20034;-67
2021/12/20 07:08:15;;;;;;;30.27;9.63;;;-3272.80;97.50;;;;;;4993177;28;20053;-67
2021/12/20 07:10:41;;;;;;;35.83;9.93;;;-3272.80;97.50;;;;;;5006706;28;20460;-67
2021/12/20 07:13:08;;;;;;;29.52;9.20;;;-3272.80;97.50;;;;;;4995016;28;20021;-67
2021/12/20 07:15:34;;;;;;;32.92;10.32;;;-3272.80;97.40;;;;;;4994208;28;20116;-67
2021/12/20 07:18:00;;;;;;;34.67;9.50;;;-3272.80;97.40;;;;;;4995471;28;20022;-67
2021/12/20 07:20:26;;;;;;;35.10;10.82;;;-3272.80;97.40;;;;;;4985484;28;20737;-66
2021/12/20 07:22:51;;;;;;;36.20;10.90;;;-3272.80;97.40;;;;;;4993531;28;20049;-67
2021/12/20 07:25:19;;;;;;;43.70;11.98;;;-3272.80;97.40;;;;;;4989345;28;20491;-66
2021/12/20 07:27:51;;;;;;;44.38;12.13;;;-3272.80;97.30;;;;;;4994543;28;20022;-67
2021/12/20 07:30:16;;;;;;;47.22;11.10;;;-3272.90;97.50;;;;;;4992726;28;20033;-67
2021/12/20 07:32:42;;;;;;;46.22;11.95;;;-3272.80;97.40;;;;;;4991778;28;20346;-67
2021/12/20 07:35:08;;;;;;;40.90;11.48;;;-3272.80;97.40;;;;;;5019335;28;20132;-67
2021/12/20 07:37:34;;;;;;;31.08;10.80;;;-3272.80;97.40;;;;;;4997662;28;20062;-67
2021/12/20 07:39:59;;;;;;;37.22;9.93;;;-3272.90;97.50;;;;;;4996227;28;20382;-67
2021/12/20 07:42:25;;;;;;;37.28;11.30;;;-3272.90;97.50;;;;;;4995999;28;20040;-67
2021/12/20 07:44:50;;;;;;;33.65;11.05;;;-3273.00;97.60;;;;;;4989821;28;20077;-67
2021/12/20 07:47:16;;;;;;;36.20;12.57;;;-3273.00;97.60;;;;;;4992090;28;20099;-67
2021/12/20 07:49:42;;;;;;;33.63;11.38;;;-3273.00;97.60;;;;;;4959708;28;22401;-67
2021/12/20 07:52:08;;;;;;;30.98;11.43;;;-3273.10;97.50;;;;;;4967469;28;20030;-66
2021/12/20 07:54:33;;;;;;;31.75;11.75;;;-3273.10;97.50;;;;;;4995859;28;20448;-67
2021/12/20 07:56:59;;;;;;;39.78;11.52;;;-3273.10;97.60;;;;;;4991386;28;20038;-67
2021/12/20 07:59:24;;;;;;;38.33;12.05;;;-3273.10;97.50;;;;;;4996363;28;20041;-67
2021/12/20 08:01:50;;;;;;;42.47;11.68;;;-3273.20;97.60;;;;;;4999232;28;20416;-67
2021/12/20 08:04:16;;;;;;;45.33;12.13;;;-3273.20;97.50;;;;;;5001435;28;20131;-67
2021/12/20 08:06:43;;;;;;;39.22;11.52;;;-3273.20;97.60;;;;;;4994038;28;20152;-67
2021/12/20 08:09:09;;;;;;;37.38;11.30;;;-3273.20;97.50;;;;;;5015879;28;20113;-67
2021/12/20 08:11:35;;;;;;;42.88;11.10;;;-3273.30;97.60;;;;;;4984731;28;20101;-67
2021/12/20 08:14:01;;;;;;;42.72;11.25;;;-3273.40;97.70;;;;;;4993851;28;20140;-66
2021/12/20 08:16:26;;;;;;;37.85;12.68;;;-3273.30;97.50;;;;;;4989582;28;20018;-66
2021/12/20 08:18:52;;;;;;;36.80;12.35;;;-3273.30;97.50;;;;;;4995424;28;20058;-67
2021/12/20 08:21:17;;;;;;;39.40;13.98;;;-3273.40;97.60;;;;;;4989171;28;20500;-66
2021/12/20 08:23:43;;;;;;;38.28;12.85;;;-3273.40;97.60;;;;;;4989471;28;20026;-66
2021/12/20 08:26:09;;;;;;;45.35;13.35;;;-3273.40;97.60;;;;;;4992968;28;20105;-67
2021/12/20 08:28:35;;;;;;;37.15;13.02;;;-3273.50;97.60;;;;;;4993912;28;20073;-66
2021/12/20 08:31:02;;;;;;;30.40;12.30;;;-3273.50;97.60;;;;;;4983811;28;20494;-66
2021/12/20 08:33:27;;;;;;;43.50;13.20;;;-3273.60;97.70;;;;;;4994414;28;20326;-66
2021/12/20 08:35:53;;;;;;;42.35;12.20;;;-3273.60;97.70;;;;;;4987303;28;20027;-66
2021/12/20 08:38:19;;;;;;;41.63;12.40;;;-3273.70;97.80;;;;;;4993721;28;20684;-66
2021/12/20 08:40:47;;;;;;;42.15;13.20;;;-3273.70;97.70;;;;;;4987442;28;20029;-66
2021/12/20 08:43:14;;;;;;;47.90;13.75;;;-3273.70;97.80;;;;;;4993988;28;20038;-66
2021/12/20 08:45:40;;;;;;;40.15;13.07;;;-3273.80;97.70;;;;;;4993116;28;20270;-66
2021/12/20 08:48:06;;;;;;;34.30;11.70;;;-3273.90;97.80;;;;;;4997634;28;20124;-66
2021/12/20 08:50:32;;;;;;;48.95;14.52;;;-3274.00;97.90;;;;;;4973548;28;20103;-67
2021/12/20 08:52:57;;;;;;;40.17;13.43;;;-3274.00;97.90;;;;;;4991490;28;20085;-66
2021/12/20 08:55:23;;;;;;;52.00;13.88;;;-3274.10;97.90;;;;;;4993006;28;20468;-67
2021/12/20 08:57:50;;;;;;;42.63;13.25;;;-3274.10;97.80;;;;;;4993478;28;20030;-67
2021/12/20 09:00:21;;;;;;;38.17;13.35;;;-3274.20;97.90;;;;;;4992310;28;20038;-67
2021/12/20 09:02:48;;;;;;;50.03;14.10;;;-3274.30;98.00;;;;;;4999286;28;20117;-66
2021/12/20 09:05:13;;;;;;;46.08;14.30;;;-3274.30;98.00;;;;;;4999319;28;20026;-67
2021/12/20 09:07:41;;;;;;;43.97;13.95;;;-3274.40;98.10;;;;;;4988212;28;20033;-66
2021/12/20 09:10:08;;;;;;;49.13;14.60;;;-3274.70;98.30;;;;;;4985452;28;20041;-67
2021/12/20 09:12:34;;;;;;;44.25;14.52;;;-3274.70;98.30;;;;;;4997320;28;20021;-66
2021/12/20 09:14:59;;;;;;;53.47;14.35;;;-3274.70;98.20;;;;;;4985423;28;20608;-67
2021/12/20 09:17:25;;;;;;;44.65;14.05;;;-3274.80;98.20;;;;;;4993069;28;20045;-67
2021/12/20 09:19:51;;;;;;;46.22;15.73;;;-3275.00;98.40;;;;;;4992733;28;21446;-67
2021/12/20 09:22:17;;;;;;;44.45;14.20;;;-3275.10;98.50;;;;;;4991187;28;20037;-67
2021/12/20 09:24:42;;;;;;;44.75;14.85;;;-3275.20;98.50;;;;;;4998942;28;20022;-67
2021/12/20 09:27:08;;;;;;;47.00;15.70;;;-3275.20;98.40;;;;;;4993014;28;20313;-67
2021/12/20 09:29:34;;;;;;;59.50;15.15;;;-3275.20;98.30;;;;;;4986229;28;20061;-67
2021/12/20 09:32:00;;;;;;;45.88;15.05;;;-3275.10;98.20;;;;;;4985000;28;20465;-67
2021/12/20 09:34:25;;;;;;;47.60;14.85;;;-3275.20;98.30;;;;;;4989385;28;20031;-67
2021/12/20 09:36:54;;;;;;;41.28;14.35;;;-3275.50;98.50;;;;;;4995244;28;20041;-67
2021/12/20 09:39:21;;;;;;;43.47;15.25;;;-3275.70;98.60;;;;;;4983433;28;20027;-67
2021/12/20 09:44:12;;;;;;;45.55;17.08;;;-3275.90;98.40;;;;;;4994380;28;20025;-66
2021/12/20 09:46:40;;;;;;;54.17;16.58;;;-3276.10;98.50;;;;;;4993303;28;20461;-67
2021/12/20 09:49:07;;;;;;;50.40;16.98;;;-3276.30;98.50;;;;;;4991066;28;20037;-67
2021/12/20 09:51:33;;;;;;;40.13;16.08;;;-3276.40;98.40;;;;;;4965417;28;20522;-67
2021/12/20 09:53:59;;;;;;;45.83;15.43;;;-3276.50;98.40;;;;;;4993264;28;20029;-66
2021/12/20 09:56:26;;;;;;;45.20;14.90;;;-3276.70;98.40;;;;;;4995828;28;20026;-66
2021/12/20 09:58:55;;;;;;;49.88;13.68;;;0.00;98.30;;;;;;5001873;28;20041;-67
2021/12/20 10:01:22;;;;;;;33.75;13.18;;;0.10;98.20;;;;;;4991472;28;20179;-64
2021/12/20 10:03:48;;;;;;;38.90;12.70;;;0.30;98.00;;;;;;4993556;28;20112;-64
2021/12/20 10:06:14;;;;;;;43.90;13.68;;;0.40;97.80;;;;;;4995281;28;20050;-64
2021/12/20 10:08:49;;;;;;;36.70;12.35;;;0.60;97.50;;;;;;4997573;28;20096;-64
2021/12/20 10:11:24;;;;;;;27.70;11.27;;;0.80;96.70;;;;;;4985931;28;20112;-64
2021/12/20 10:14:05;;;;;;;34.72;12.13;;;0.90;96.00;;;;;;4995582;28;20030;-64
2021/12/20 10:16:31;;;;;;;;;;;1.00;94.90;;;;;;5000747;28;20040;-64
2021/12/20 10:18:57;;;;;;;23.13;10.73;;;1.10;94.20;;;;;;4991879;28;20539;-64
2021/12/20 10:21:44;;;;;;;24.92;9.27;;;1.10;93.70;;;;;;4984918;28;20117;-64
2021/12/20 10:24:35;;;;;;;22.10;10.00;;;1.10;93.60;;;;;;4991504;28;20492;-64
2021/12/20 10:27:01;;;;;;;26.02;8.65;;;1.10;93.70;;;;;;4995319;28;20094;-65
2021/12/20 10:29:28;;;;;;;20.85;7.78;;;1.20;93.30;;;;;;4984972;28;20832;-65
2021/12/20 10:31:54;;;;;;;18.77;6.90;;;1.30;93.20;;;;;;4987117;28;20080;-67
2021/12/20 10:34:30;;;;;;;24.75;8.05;;;1.30;93.40;;;;;;4988186;28;20026;-65
2021/12/20 10:36:58;;;;;;;27.70;7.10;;;1.30;93.30;;;;;;4987950;28;20774;-64
2021/12/20 10:39:35;;;;;;;22.75;7.13;;;1.40;93.40;;;;;;4992571;28;20068;-64
2021/12/20 10:42:14;;;;;;;29.70;8.52;;;1.50;92.80;;;;;;4991157;28;20042;-65
2021/12/20 10:44:40;;;;;;;19.67;6.68;;;1.50;92.70;;;;;;4996440;28;20046;-64
2021/12/20 10:47:06;;;;;;;19.80;6.82;;;1.60;92.40;;;;;;4997164;28;20030;-65
2021/12/20 10:49:32;;;;;;;22.73;6.65;;;1.70;92.00;;;;;;4984378;28;20098;-64
2021/12/20 10:51:59;;;;;;;18.38;6.32;;;1.70;91.90;;;;;;4990318;28;20022;-64
2021/12/20 10:54:30;;;;;;;15.85;5.95;;;1.70;91.90;;;;;;4995887;28;20069;-66
2021/12/20 10:57:00;;;;;;;19.88;6.45;;;1.70;92.00;;;;;;4975789;28;20046;-65
2021/12/20 10:59:28;;;;;;;16.48;6.63;;;1.80;92.10;;;;;;4989435;28;20272;-65
2021/12/20 11:04:51;;;;;;;17.92;6.32;;;1.90;91.90;;;;;;4992294;28;20044;-65
2021/12/20 11:10:06;;;;;;;21.33;5.60;;;2.10;91.60;;;;;;4986478;28;20888;-65
2021/12/20 11:12:33;;;;;;;20.23;5.30;;;2.10;91.30;;;;;;4991749;28;20388;-65
2021/12/20 11:15:08;;;;;;;16.85;5.70;;;2.30;90.00;;;;;;4993144;28;20037;-65
2021/12/20 11:17:35;;;;;;;21.08;5.05;;;2.40;89.40;;;;;;4985536;28;20102;-66
2021/12/20 11:20:01;;;;;;;17.83;4.68;;;2.40;89.20;;;;;;4988524;28;20038;-65
2021/12/20 11:22:31;;;;;;;12.80;4.43;;;2.50;89.40;;;;;;4980776;28;20079;-65
2021/12/20 11:25:11;;;;;;;19.08;3.97;;;2.60;89.10;;;;;;4992949;28;20042;-66
2021/12/20 11:27:41;;;;;;;8.60;2.88;;;2.60;88.70;;;;;;4990923;28;20033;-66
2021/12/20 11:30:08;;;;;;;10.05;2.58;;;2.80;88.00;;;;;;4979615;28;20018;-66
2021/12/20 11:32:36;;;;;;;11.82;2.55;;;2.90;87.80;;;;;;4988702;28;20507;-66
2021/12/20 11:35:02;;;;;;;8.73;2.45;;;3.00;87.60;;;;;;4994436;28;20553;-66
2021/12/20 11:37:28;;;;;;;9.48;2.45;;;3.00;87.00;;;;;;5000371;28;20029;-67
2021/12/20 11:39:56;;;;;;;5.57;2.08;;;3.10;86.70;;;;;;4997511;28;20497;-66
2021/12/20 11:42:22;;;;;;;11.65;2.08;;;3.10;85.40;;;;;;4995179;28;20129;-66
2021/12/20 11:44:53;;;;;;;5.32;1.77;;;3.20;85.00;;;;;;5001417;28;20052;-66
2021/12/20 11:47:23;;;;;;;7.10;2.05;;;3.30;84.80;;;;;;4995720;28;20048;-66
2021/12/20 11:50:16;;;;;;;10.93;1.75;;;3.40;84.20;;;;;;4992258;28;20027;-66
2021/12/20 11:52:44;;;;;;;7.72;2.10;;;3.50;84.60;;;;;;4997083;28;20049;-69
2021/12/20 11:55:25;;;;;;;6.30;2.00;;;3.40;83.80;;;;;;4994224;28;20087;-67
2021/12/20 11:57:58;;;;;;;10.95;2.42;;;3.50;84.60;;;;;;4991879;28;20034;-66
2021/12/20 12:00:24;;;;;;;8.32;1.95;;;3.60;83.80;;;;;;4989357;28;20485;-67
2021/12/20 12:02:53;;;;;;;5.43;1.80;;;3.70;83.80;;;;;;4993388;28;20029;-66
2021/12/20 12:05:34;;;;;;;6.70;1.45;;;3.80;83.50;;;;;;4980750;28;20099;-67
2021/12/20 12:08:30;;;;;;;5.93;1.40;;;3.80;82.20;;;;;;4988781;28;20378;-67
2021/12/20 12:11:16;;;;;;;7.25;1.60;;;3.80;82.40;;;;;;4993563;28;20164;-66
2021/12/20 12:13:58;;;;;;;5.70;1.48;;;3.90;82.60;;;;;;4978050;28;20040;-66
2021/12/20 12:16:58;;;;;;;5.63;1.60;;;3.90;82.50;;;;;;4990402;28;20030;-67
2021/12/20 12:19:45;;;;;;;5.85;1.80;;;4.00;83.00;;;;;;4989294;28;20108;-67
2021/12/20 12:22:26;;;;;;;2.70;1.27;;;4.10;82.10;;;;;;5002951;28;20041;-67
2021/12/20 12:24:54;;;;;;;6.80;1.40;;;4.10;82.10;;;;;;4991085;28;20038;-66
2021/12/20 12:27:31;;;;;;;6.28;1.40;;;4.10;81.10;;;;;;4994322;28;20049;-67
2021/12/20 12:30:12;;;;;;;6.30;1.40;;;4.10;81.40;;;;;;4995275;28;20038;-66
2021/12/20 12:32:58;;;;;;;9.10;1.77;;;4.10;81.50;;;;;;4998190;28;20025;-67
2021/12/20 12:35:39;;;;;;;5.20;1.60;;;4.10;81.40;;;;;;4997011;28;20050;-67
2021/12/20 12:38:17;;;;;;;5.38;1.60;;;4.00;81.50;;;;;;5010114;28;20038;-67